Petrey, Alabama
Current Conditions -  °F | °C
As of 1:53 PM on Thursday 30 Oct 2014 (Local Time) from KTOI Reporting Station
Clear Clear  
Wind Chill: 71°   Ceiling: Unl
Heat Index: 71°   Visibility: 10mi
Dew Point: 38°   Wind: 9mph
Humidity: 30%   Direction: 10°N
Pressure: 30.02"   Gusts: NA
Location:  31.85°N, 86.21°W
Report Text: KTOI 301853Z AUTO 01008KT 10SM CLR 22/03 A3002 RMK AO2 SLP162 T02170033
Loading
Personal Weather Stations






























Interactive Weather Map
Tropical Storm Tracking
New forecast layout! Learn more

10-Day Weather Forecast

Advertisements
Track Severe Weather on mobile